Time,TemperatureF,DewpointF,PressureIn,WindDirection,WindDirectionDegrees,WindSpeedMPH,WindSpeedGustMPH,Humidity,HourlyPrecipIn,Conditions,Clouds,dailyrainin,SoftwareType,DateUTC
2013-06-25 00:04:00,75.2,70.7,29.93,West,270,2.0,-999.0,86,-99.99,,,0.00,Acu-Link.com,2013-06-25 04:04:00,
2013-06-25 00:19:00,73.4,68.9,29.93,NNW,337,0.0,-999.0,86,-99.99,,,0.00,Acu-Link.com,2013-06-25 04:19:00,
2013-06-25 00:34:00,73.4,69.3,29.92,NNE,22,2.7,-999.0,87,-99.99,,,0.00,Acu-Link.com,2013-06-25 04:34:00,
2013-06-25 00:50:00,73.4,69.3,29.91,East,90,2.0,-999.0,87,-99.99,,,0.00,Acu-Link.com,2013-06-25 04:50:00,
2013-06-25 01:05:00,73.4,69.3,29.91,NNW,337,0.0,-999.0,87,-99.99,,,0.00,Acu-Link.com,2013-06-25 05:05:00,
2013-06-25 01:20:00,73.4,69.3,29.92,NNW,337,0.0,-999.0,87,-99.99,,,0.00,Acu-Link.com,2013-06-25 05:20:00,
2013-06-25 01:35:00,73.4,69.3,29.92,NW,315,1.6,-999.0,87,-99.99,,,0.00,Acu-Link.com,2013-06-25 05:35:00,
2013-06-25 01:50:00,73.4,69.3,29.92,North,0,0.0,-999.0,87,-99.99,,,0.00,Acu-Link.com,2013-06-25 05:50:00,
2013-06-25 02:06:00,73.4,69.3,29.92,NNW,337,0.0,-999.0,87,-99.99,,,0.00,Acu-Link.com,2013-06-25 06:06:00,
2013-06-25 02:21:00,71.6,67.5,29.91,NE,45,2.0,-999.0,87,-99.99,,,0.00,Acu-Link.com,2013-06-25 06:21:00,
2013-06-25 02:36:00,73.4,69.6,29.91,West,270,2.7,-999.0,88,-99.99,,,0.00,Acu-Link.com,2013-06-25 06:36:00,
2013-06-25 02:51:00,73.4,69.6,29.91,NE,45,0.0,-999.0,88,-99.99,,,0.00,Acu-Link.com,2013-06-25 06:51:00,
2013-06-25 03:06:00,73.4,69.6,29.91,ESE,112,1.6,-999.0,88,-99.99,,,0.00,Acu-Link.com,2013-06-25 07:06:00,
2013-06-25 03:22:00,73.4,69.3,29.91,WNW,292,1.6,-999.0,87,-99.99,,,0.00,Acu-Link.com,2013-06-25 07:22:00,
2013-06-25 03:37:00,73.4,69.6,29.90,NNW,337,2.0,-999.0,88,-99.99,,,0.00,Acu-Link.com,2013-06-25 07:37:00,
2013-06-25 03:52:00,73.4,69.6,29.90,WNW,292,0.0,-999.0,88,-99.99,,,0.00,Acu-Link.com,2013-06-25 07:52:00,
2013-06-25 04:07:00,73.4,69.6,29.89,NNW,337,1.6,-999.0,88,-99.99,,,0.00,Acu-Link.com,2013-06-25 08:07:00,
2013-06-25 04:23:00,73.4,69.6,29.89,WNW,292,0.0,-999.0,88,-99.99,,,0.00,Acu-Link.com,2013-06-25 08:23:00,
2013-06-25 04:56:00,73.4,69.6,29.89,NW,315,2.0,-999.0,88,-99.99,,,0.00,Acu-Link.com,2013-06-25 08:56:00,
2013-06-25 05:11:00,73.4,70.0,29.90,West,270,2.0,-999.0,89,-99.99,,,0.00,Acu-Link.com,2013-06-25 09:11:00,
2013-06-25 05:26:00,73.4,70.0,29.90,West,270,1.6,-999.0,89,-99.99,,,0.00,Acu-Link.com,2013-06-25 09:26:00,
2013-06-25 05:41:00,73.4,70.0,29.90,SSE,157,5.1,-999.0,89,-99.99,,,0.00,Acu-Link.com,2013-06-25 09:41:00,
2013-06-25 05:57:00,73.4,70.0,29.90,NW,315,0.0,-999.0,89,-99.99,,,0.00,Acu-Link.com,2013-06-25 09:57:00,
2013-06-25 06:12:00,73.4,70.0,29.90,NNE,22,3.6,-999.0,89,-99.99,,,0.00,Acu-Link.com,2013-06-25 10:12:00,
2013-06-25 06:27:00,73.4,70.0,29.90,SSE,157,6.3,-999.0,89,-99.99,,,0.00,Acu-Link.com,2013-06-25 10:27:00,
2013-06-25 06:43:00,73.4,70.0,29.90,West,270,1.1,-999.0,89,-99.99,,,0.00,Acu-Link.com,2013-06-25 10:43:00,
2013-06-25 06:58:00,73.4,70.0,29.90,SSW,202,2.0,-999.0,89,-99.99,,,0.00,Acu-Link.com,2013-06-25 10:58:00,
2013-06-25 07:13:00,73.4,70.0,29.90,SE,135,4.7,-999.0,89,-99.99,,,0.00,Acu-Link.com,2013-06-25 11:13:00,
2013-06-25 07:29:00,73.4,70.0,29.91,West,270,0.0,-999.0,89,-99.99,,,0.00,Acu-Link.com,2013-06-25 11:29:00,
2013-06-25 07:44:00,73.4,69.6,29.91,SSW,202,1.1,-999.0,88,-99.99,,,0.00,Acu-Link.com,2013-06-25 11:44:00,
2013-06-25 07:59:00,73.4,69.3,29.92,West,270,1.6,-999.0,87,-99.99,,,0.00,Acu-Link.com,2013-06-25 11:59:00,
2013-06-25 08:14:00,75.2,71.1,29.92,West,270,0.0,-999.0,87,-99.99,,,0.00,Acu-Link.com,2013-06-25 12:14:00,
2013-06-25 08:29:00,75.2,70.7,29.93,West,270,1.6,-999.0,86,-99.99,,,0.00,Acu-Link.com,2013-06-25 12:29:00,
2013-06-25 08:44:00,77.0,72.1,29.93,SSE,157,0.0,-999.0,85,-99.99,,,0.00,Acu-Link.com,2013-06-25 12:44:00,
2013-06-25 08:59:00,77.0,71.4,29.93,WSW,247,1.6,-999.0,83,-99.99,,,0.00,Acu-Link.com,2013-06-25 12:59:00,
2013-06-25 09:15:00,77.0,71.4,29.93,SSE,157,2.0,-999.0,83,-99.99,,,0.00,Acu-Link.com,2013-06-25 13:15:00,
2013-06-25 09:30:00,78.8,72.1,29.92,SSE,157,2.0,-999.0,80,-99.99,,,0.00,Acu-Link.com,2013-06-25 13:30:00,
2013-06-25 09:45:00,82.4,73.3,29.93,South,180,2.7,-999.0,74,-99.99,,,0.00,Acu-Link.com,2013-06-25 13:45:00,
2013-06-25 10:01:00,80.6,72.3,29.93,SSE,157,4.7,-999.0,76,-99.99,,,0.00,Acu-Link.com,2013-06-25 14:01:00,
2013-06-25 10:16:00,82.4,72.9,29.93,ESE,112,5.6,-999.0,73,-99.99,,,0.00,Acu-Link.com,2013-06-25 14:16:00,
2013-06-25 10:31:00,82.4,72.4,29.93,South,180,4.0,-999.0,72,-99.99,,,0.00,Acu-Link.com,2013-06-25 14:31:00,
2013-06-25 10:47:00,87.8,74.5,29.93,SE,135,1.6,-999.0,65,-99.99,,,0.00,Acu-Link.com,2013-06-25 14:47:00,
2013-06-25 11:02:00,86.0,73.3,29.92,South,180,6.3,-999.0,66,-99.99,,,0.00,Acu-Link.com,2013-06-25 15:02:00,
2013-06-25 11:17:00,86.0,73.3,29.92,South,180,3.1,-999.0,66,-99.99,,,0.00,Acu-Link.com,2013-06-25 15:17:00,
2013-06-25 11:32:00,87.8,73.6,29.92,SSE,157,3.1,-999.0,63,-99.99,,,0.00,Acu-Link.com,2013-06-25 15:32:00,
2013-06-25 11:47:00,86.0,72.4,29.92,South,180,3.6,-999.0,64,-99.99,,,0.00,Acu-Link.com,2013-06-25 15:47:00,
2013-06-25 12:03:00,87.8,72.6,29.92,South,180,4.0,-999.0,61,-99.99,,,0.00,Acu-Link.com,2013-06-25 16:03:00,
2013-06-25 12:18:00,91.4,72.9,29.92,West,270,5.6,-999.0,55,-99.99,,,0.00,Acu-Link.com,2013-06-25 16:18:00,
2013-06-25 12:33:00,89.6,72.3,29.91,SSE,157,3.6,-999.0,57,-99.99,,,0.00,Acu-Link.com,2013-06-25 16:33:00,
2013-06-25 12:49:00,93.2,72.9,29.91,WNW,292,2.0,-999.0,52,-99.99,,,0.00,Acu-Link.com,2013-06-25 16:49:00,
2013-06-25 13:04:00,93.2,72.9,29.90,SSW,202,4.0,-999.0,52,-99.99,,,0.00,Acu-Link.com,2013-06-25 17:04:00,
2013-06-25 13:19:00,96.8,75.0,29.90,SE,135,2.7,-999.0,50,-99.99,,,0.00,Acu-Link.com,2013-06-25 17:19:00,
2013-06-25 13:34:00,91.4,71.3,29.90,SSE,157,5.6,-999.0,52,-99.99,,,0.00,Acu-Link.com,2013-06-25 17:34:00,
2013-06-25 13:49:00,96.8,74.4,29.88,West,270,2.0,-999.0,49,-99.99,,,0.00,Acu-Link.com,2013-06-25 17:49:00,
2013-06-25 14:05:00,96.8,73.2,29.87,South,180,3.6,-999.0,47,-99.99,,,0.00,Acu-Link.com,2013-06-25 18:05:00,
2013-06-25 14:20:00,91.4,70.7,29.86,South,180,3.1,-999.0,51,-99.99,,,0.00,Acu-Link.com,2013-06-25 18:20:00,
2013-06-25 14:35:00,95.0,72.2,29.85,South,180,3.6,-999.0,48,-99.99,,,0.00,Acu-Link.com,2013-06-25 18:35:00,
2013-06-25 14:50:00,91.4,71.3,29.86,SSE,157,2.0,-999.0,52,-99.99,,,0.00,Acu-Link.com,2013-06-25 18:50:00,
2013-06-25 15:05:00,89.6,69.6,29.85,SSW,202,4.0,-999.0,52,-99.99,,,0.00,Acu-Link.com,2013-06-25 19:05:00,
2013-06-25 15:20:00,93.2,71.2,29.85,South,180,4.0,-999.0,49,-99.99,,,0.00,Acu-Link.com,2013-06-25 19:20:00,
2013-06-25 15:36:00,91.4,68.9,29.83,South,180,3.1,-999.0,48,-99.99,,,0.00,Acu-Link.com,2013-06-25 19:36:00,
2013-06-25 15:51:00,91.4,68.9,29.83,SSW,202,3.6,-999.0,48,-99.99,,,0.00,Acu-Link.com,2013-06-25 19:51:00,
2013-06-25 16:06:00,91.4,70.1,29.84,South,180,2.7,-999.0,50,-99.99,,,0.00,Acu-Link.com,2013-06-25 20:06:00,
2013-06-25 16:21:00,91.4,68.9,29.83,SSE,157,3.6,-999.0,48,-99.99,,,0.00,Acu-Link.com,2013-06-25 20:21:00,
2013-06-25 16:36:00,98.6,72.9,29.83,ESE,112,2.7,-999.0,44,-99.99,,,0.00,Acu-Link.com,2013-06-25 20:36:00,
2013-06-25 16:52:00,95.0,72.8,29.83,NNE,22,2.0,-999.0,49,-99.99,,,0.00,Acu-Link.com,2013-06-25 20:52:00,
2013-06-25 17:07:00,95.0,70.3,29.82,SSE,157,4.0,-999.0,45,-99.99,,,0.00,Acu-Link.com,2013-06-25 21:07:00,
2013-06-25 17:22:00,95.0,72.8,29.82,West,270,2.0,-999.0,49,-99.99,,,0.00,Acu-Link.com,2013-06-25 21:22:00,
2013-06-25 17:37:00,91.4,70.7,29.82,WNW,292,2.0,-999.0,51,-99.99,,,0.00,Acu-Link.com,2013-06-25 21:37:00,
2013-06-25 17:52:00,91.4,72.4,29.81,WNW,292,1.6,-999.0,54,-99.99,,,0.00,Acu-Link.com,2013-06-25 21:52:00,
2013-06-25 18:07:00,89.6,72.3,29.81,North,0,0.0,-999.0,57,-99.99,,,0.00,Acu-Link.com,2013-06-25 22:07:00,
2013-06-25 18:23:00,87.8,72.2,29.80,WNW,292,0.0,-999.0,60,-99.99,,,0.00,Acu-Link.com,2013-06-25 22:23:00,
2013-06-25 18:38:00,87.8,72.6,29.80,East,90,2.0,-999.0,61,-99.99,,,0.00,Acu-Link.com,2013-06-25 22:38:00,
2013-06-25 18:53:00,86.0,71.4,29.80,WNW,292,1.6,-999.0,62,-99.99,,,0.00,Acu-Link.com,2013-06-25 22:53:00,
2013-06-25 19:08:00,84.2,71.1,29.79,NNW,337,1.1,-999.0,65,-99.99,,,0.00,Acu-Link.com,2013-06-25 23:08:00,
2013-06-25 19:24:00,82.4,71.2,29.80,ENE,67,2.0,-999.0,69,-99.99,,,0.00,Acu-Link.com,2013-06-25 23:24:00,
2013-06-25 19:39:00,82.4,71.2,29.80,South,180,3.1,-999.0,69,-99.99,,,0.00,Acu-Link.com,2013-06-25 23:39:00,
2013-06-25 19:54:00,80.6,69.9,29.81,SW,225,1.1,-999.0,70,-99.99,,,0.00,Acu-Link.com,2013-06-25 23:54:00,
2013-06-25 20:09:00,80.6,70.3,29.82,West,270,1.1,-999.0,71,-99.99,,,0.00,Acu-Link.com,2013-06-26 00:09:00,
2013-06-25 20:24:00,78.8,69.4,29.82,ENE,67,2.7,-999.0,73,-99.99,,,0.00,Acu-Link.com,2013-06-26 00:24:00,
2013-06-25 20:39:00,78.8,69.8,29.83,SE,135,1.1,-999.0,74,-99.99,,,0.00,Acu-Link.com,2013-06-26 00:39:00,
2013-06-25 20:54:00,78.8,70.6,29.83,WSW,247,2.0,-999.0,76,-99.99,,,0.00,Acu-Link.com,2013-06-26 00:54:00,
2013-06-25 21:10:00,78.8,71.0,29.83,South,180,4.0,-999.0,77,-99.99,,,0.00,Acu-Link.com,2013-06-26 01:10:00,
2013-06-25 21:25:00,78.8,71.3,29.82,NNW,337,1.6,-999.0,78,-99.99,,,0.00,Acu-Link.com,2013-06-26 01:25:00,
2013-06-25 21:40:00,77.0,69.2,29.82,West,270,1.6,-999.0,77,-99.99,,,0.00,Acu-Link.com,2013-06-26 01:40:00,
2013-06-25 21:55:00,77.0,68.8,29.82,ESE,112,1.1,-999.0,76,-99.99,,,0.00,Acu-Link.com,2013-06-26 01:55:00,
2013-06-25 22:11:00,77.0,69.2,29.83,WNW,292,1.6,-999.0,77,-99.99,,,0.00,Acu-Link.com,2013-06-26 02:11:00,
2013-06-25 22:26:00,77.0,69.6,29.83,WNW,292,0.0,-999.0,78,-99.99,,,0.00,Acu-Link.com,2013-06-26 02:26:00,
2013-06-25 22:41:00,75.2,68.2,29.83,WNW,292,0.0,-999.0,79,-99.99,,,0.00,Acu-Link.com,2013-06-26 02:41:00,
2013-06-25 22:57:00,73.4,66.8,29.83,WNW,292,0.0,-999.0,80,-99.99,,,0.00,Acu-Link.com,2013-06-26 02:57:00,
2013-06-25 23:12:00,73.4,67.2,29.84,WNW,292,0.0,-999.0,81,-99.99,,,0.00,Acu-Link.com,2013-06-26 03:12:00,
2013-06-25 23:27:00,73.4,67.6,29.83,West,270,0.0,-999.0,82,-99.99,,,0.00,Acu-Link.com,2013-06-26 03:27:00,
2013-06-25 23:42:00,73.4,67.9,29.83,NNE,22,1.6,-999.0,83,-99.99,,,0.00,Acu-Link.com,2013-06-26 03:42:00,
2013-06-25 23:58:00,73.4,67.6,29.84,NNW,337,0.0,-999.0,82,-99.99,,,0.00,Acu-Link.com,2013-06-26 03:58:00,